createdAt,value
2022-09-21T00:00:06.612Z,99718.52
2022-09-21T00:02:38.775Z,99726.44
2022-09-21T00:05:10.888Z,99724.62
2022-09-21T00:07:42.895Z,99723.69
2022-09-21T00:10:14.934Z,99729.92
2022-09-21T00:12:48.459Z,99726.30
2022-09-21T00:15:20.504Z,99727.23
2022-09-21T00:17:54.452Z,99722.92
2022-09-21T00:20:27.921Z,99730.85
2022-09-21T00:22:59.858Z,99728.30
2022-09-21T00:25:31.832Z,99725.55
2022-09-21T00:28:03.806Z,99724.62
2022-09-21T00:30:35.880Z,99728.06
2022-09-21T00:33:07.694Z,99725.45
2022-09-21T00:35:40.366Z,99726.44
2022-09-21T00:38:12.233Z,99728.30
2022-09-21T00:40:44.181Z,99734.54
2022-09-21T00:43:18.387Z,99736.98
2022-09-21T00:45:53.577Z,99733.55
2022-09-21T00:48:25.617Z,99737.98
2022-09-21T00:51:01.293Z,99737.92
2022-09-21T00:53:33.854Z,99731.98
2022-09-21T00:56:07.804Z,99732.13
2022-09-21T00:58:42.577Z,99737.30
2022-09-21T01:01:18.988Z,99735.61
2022-09-21T01:03:53.223Z,99734.61
2022-09-21T01:06:25.650Z,99740.77
2022-09-21T01:08:59.177Z,99731.12
2022-09-21T01:11:50.601Z,99728.44
2022-09-21T01:14:41.229Z,99728.58
2022-09-21T01:17:16.109Z,99737.36
2022-09-21T01:20:23.886Z,99740.05
2022-09-21T01:23:22.770Z,99735.88
2022-09-21T01:26:13.878Z,99732.36
2022-09-21T01:29:09.837Z,99730.58
2022-09-21T01:31:47.563Z,99728.02
2022-09-21T01:34:25.382Z,99727.20
2022-09-21T01:37:00.108Z,99731.57
2022-09-21T01:39:33.728Z,99726.33
2022-09-21T01:42:08.108Z,99723.72
2022-09-21T01:44:41.890Z,99727.20
2022-09-21T01:47:16.693Z,99734.12
2022-09-21T01:49:49.194Z,99738.50
2022-09-21T01:52:23.796Z,99738.64
2022-09-21T01:54:58.660Z,99733.05
2022-09-21T01:57:33.524Z,99733.13
2022-09-21T02:00:07.316Z,99733.05
2022-09-21T02:02:59.094Z,99736.44
2022-09-21T02:05:32.090Z,99738.16
2022-09-21T02:08:06.068Z,99744.29
2022-09-21T02:10:52.807Z,99743.46
2022-09-21T02:13:28.170Z,99741.67
2022-09-21T02:16:15.162Z,99741.67
2022-09-21T02:19:02.625Z,99736.44
2022-09-21T02:21:49.581Z,99742.53
2022-09-21T02:24:47.282Z,99740.70
2022-09-21T02:27:28.160Z,99745.84
2022-09-21T02:30:05.978Z,99750.94
2022-09-21T02:32:51.452Z,99756.18
2022-09-21T02:35:36.600Z,99746.56
2022-09-21T02:38:20.640Z,99747.56
2022-09-21T02:40:56.224Z,99745.70
2022-09-21T02:43:31.050Z,99747.33
2022-09-21T02:46:06.418Z,99753.56
2022-09-21T02:48:44.530Z,99763.11
2022-09-21T02:51:19.485Z,99754.35
2022-09-21T02:53:54.793Z,99754.05
2022-09-21T02:56:28.143Z,99759.22
2022-09-21T02:59:03.003Z,99749.36
2022-09-21T03:01:35.819Z,99755.32
2022-09-21T03:04:07.974Z,99749.08
2022-09-21T03:06:39.915Z,99749.84
2022-09-21T03:09:11.979Z,99754.02
2022-09-21T03:11:44.029Z,99744.22
2022-09-21T03:14:17.104Z,99751.01
2022-09-21T03:16:49.071Z,99748.17
2022-09-21T03:19:20.982Z,99754.82
2022-09-21T03:21:54.785Z,99751.95
2022-09-21T03:24:44.335Z,99748.97
2022-09-21T03:27:18.680Z,99753.90
2022-09-21T03:29:50.221Z,99750.88
2022-09-21T03:32:21.815Z,99756.04
2022-09-21T03:34:54.237Z,99754.42
2022-09-21T03:37:26.300Z,99747.20
2022-09-21T03:39:59.360Z,99752.90
2022-09-21T03:42:33.255Z,99751.66
2022-09-21T03:45:05.468Z,99750.42
2022-09-21T03:47:38.310Z,99747.91
2022-09-21T03:50:10.999Z,99751.51
2022-09-21T03:52:43.794Z,99738.51
2022-09-21T03:55:15.796Z,99747.56
2022-09-21T03:57:48.126Z,99742.59
2022-09-21T04:00:21.135Z,99741.14
2022-09-21T04:02:53.345Z,99740.54
2022-09-21T04:05:25.757Z,99748.02
2022-09-21T04:07:57.907Z,99740.80
2022-09-21T04:10:31.691Z,99742.33
2022-09-21T04:13:04.514Z,99738.67
2022-09-21T04:15:36.916Z,99747.33
2022-09-21T04:18:09.037Z,99740.11
2022-09-21T04:20:41.589Z,99748.66
2022-09-21T04:23:13.478Z,99737.89
2022-09-21T04:25:46.663Z,99734.82
2022-09-21T04:28:18.958Z,99741.68
2022-09-21T04:30:55.921Z,99735.92
2022-09-21T04:33:28.076Z,99736.41
2022-09-21T04:36:00.326Z,99733.36
2022-09-21T04:38:33.193Z,99742.59
2022-09-21T04:41:05.719Z,99734.16
2022-09-21T04:43:37.911Z,99738.04
2022-09-21T04:46:12.836Z,99737.66
2022-09-21T04:48:45.157Z,99742.66
2022-09-21T04:51:17.960Z,99749.44
2022-09-21T04:53:50.247Z,99749.31
2022-09-21T04:56:22.330Z,99749.23
2022-09-21T04:58:54.861Z,99752.72
2022-09-21T05:01:28.014Z,99750.00
2022-09-21T05:04:01.865Z,99752.45
2022-09-21T05:06:35.039Z,99759.23
2022-09-21T05:09:24.650Z,99765.71
2022-09-21T05:11:56.862Z,99760.74
2022-09-21T05:14:29.243Z,99765.27
2022-09-21T05:17:01.385Z,99765.47
2022-09-21T05:19:33.710Z,99757.54
2022-09-21T05:22:05.925Z,99759.23
2022-09-21T05:24:38.135Z,99758.18
2022-09-21T05:27:13.173Z,99759.94
2022-09-21T05:29:45.918Z,99757.47
2022-09-21T05:32:26.923Z,99757.83
2022-09-21T05:35:27.480Z,99759.86
2022-09-21T05:38:04.892Z,99749.75
2022-09-21T05:40:37.515Z,99750.00
2022-09-21T05:43:11.907Z,99750.33
2022-09-21T05:45:47.843Z,99746.31
2022-09-21T05:48:23.036Z,99749.72
2022-09-21T05:51:06.909Z,99753.55
2022-09-21T05:53:51.238Z,99752.29
2022-09-21T05:56:32.674Z,99744.84
2022-09-21T05:59:31.731Z,99734.45
2022-09-21T06:02:26.239Z,99735.58
2022-09-21T06:05:01.683Z,99749.37
2022-09-21T06:07:33.815Z,99736.45
2022-09-21T06:10:07.090Z,99738.56
2022-09-21T06:12:39.964Z,99745.27
2022-09-21T06:15:14.927Z,99741.57
2022-09-21T06:17:47.175Z,99748.71
2022-09-21T06:20:19.873Z,99742.63
2022-09-21T06:22:51.833Z,99741.41
2022-09-21T06:25:23.906Z,99751.66
2022-09-21T06:27:55.917Z,99753.09
2022-09-21T06:30:28.302Z,99756.95
2022-09-21T06:33:05.322Z,99746.46
2022-09-21T06:35:38.139Z,99749.00
2022-09-21T06:38:10.239Z,99743.70
2022-09-21T06:40:42.514Z,99736.73
2022-09-21T06:43:14.612Z,99737.80
2022-09-21T06:45:48.110Z,99748.14
2022-09-21T06:48:20.680Z,99748.08
2022-09-21T06:50:52.845Z,99738.54
2022-09-21T06:53:25.032Z,99745.02
2022-09-21T06:56:05.649Z,99753.70
2022-09-21T06:58:38.744Z,99742.44
2022-09-21T07:01:13.861Z,99744.50
2022-09-21T07:03:46.165Z,99752.59
2022-09-21T07:06:20.567Z,99740.35
2022-09-21T07:11:29.865Z,99744.58
2022-09-21T07:14:02.274Z,99744.83
2022-09-21T07:16:34.245Z,99744.75
2022-09-21T07:19:13.832Z,99739.69
2022-09-21T07:21:40.418Z,99739.23
2022-09-21T07:24:12.819Z,99743.39
2022-09-21T07:26:45.049Z,99745.11
2022-09-21T07:29:17.097Z,99747.30
2022-09-21T07:31:49.487Z,99747.06
2022-09-21T07:34:21.491Z,99747.52
2022-09-21T07:36:54.254Z,99742.78
2022-09-21T07:39:26.225Z,99740.00
2022-09-21T07:41:58.848Z,99744.74
2022-09-21T07:44:30.947Z,99742.53
2022-09-21T07:47:03.587Z,99744.95
2022-09-21T07:49:35.742Z,99750.31
2022-09-21T07:52:11.010Z,99741.11
2022-09-21T07:54:43.140Z,99740.37
2022-09-21T07:57:32.770Z,99740.77
2022-09-21T08:00:06.117Z,99749.78
2022-09-21T08:02:43.812Z,99746.27
2022-09-21T08:05:13.933Z,99742.74
2022-09-21T08:07:46.095Z,99736.55
2022-09-21T08:10:18.652Z,99730.80
2022-09-21T08:12:51.124Z,99729.28
2022-09-21T08:15:46.879Z,99722.55
2022-09-21T08:17:58.788Z,99732.92
2022-09-21T08:20:30.990Z,99739.36
2022-09-21T08:23:02.946Z,99737.95
2022-09-21T08:25:35.079Z,99735.56
2022-09-21T08:28:09.851Z,99735.43
2022-09-21T08:30:40.986Z,99734.58
2022-09-21T08:33:13.096Z,99739.50
2022-09-21T08:35:46.760Z,99728.58
2022-09-21T08:38:18.920Z,99733.60
2022-09-21T08:40:52.859Z,99727.45
2022-09-21T08:43:39.683Z,99727.32
2022-09-21T08:46:20.786Z,99726.34
2022-09-21T08:49:07.799Z,99722.25
2022-09-21T08:51:42.643Z,99724.79
2022-09-21T08:54:17.955Z,99726.47
2022-09-21T08:57:06.358Z,99720.86
2022-09-21T08:59:24.124Z,99715.53
2022-09-21T09:02:05.210Z,99716.66
2022-09-21T09:05:01.506Z,99714.13
2022-09-21T09:07:52.186Z,99710.92
2022-09-21T09:10:39.046Z,99711.20
2022-09-21T09:13:29.439Z,99711.06
2022-09-21T09:16:13.571Z,99709.10
2022-09-21T09:18:57.804Z,99706.97
2022-09-21T09:21:35.326Z,99702.22
2022-09-21T09:24:22.209Z,99704.30
2022-09-21T09:27:09.058Z,99704.18
2022-09-21T09:30:03.735Z,99709.08
2022-09-21T09:32:47.700Z,99695.34
2022-09-21T09:35:29.058Z,99697.59
2022-09-21T09:38:21.896Z,99690.02
2022-09-21T09:41:15.108Z,99691.55
2022-09-21T09:44:08.228Z,99685.67
2022-09-21T09:46:46.148Z,99693.23
2022-09-21T09:49:41.948Z,99691.77
2022-09-21T09:52:16.871Z,99693.55
2022-09-21T09:54:49.155Z,99692.41
2022-09-21T09:57:24.007Z,99688.63
2022-09-21T10:00:05.876Z,99696.31
2022-09-21T10:02:53.941Z,99688.42
2022-09-21T10:05:38.644Z,99699.06
2022-09-21T10:08:31.776Z,99691.52
2022-09-21T10:11:04.501Z,99697.17
2022-09-21T10:13:38.944Z,99693.31
2022-09-21T10:16:23.056Z,99693.63
2022-09-21T10:18:59.378Z,99691.41
2022-09-21T10:21:40.493Z,99688.02
2022-09-21T10:24:18.507Z,99685.86
2022-09-21T10:26:56.874Z,99684.75
2022-09-21T10:29:35.581Z,99677.06
2022-09-21T10:32:19.417Z,99675.10
2022-09-21T10:35:10.467Z,99676.80
2022-09-21T10:37:47.197Z,99675.52
2022-09-21T10:40:25.207Z,99667.25
2022-09-21T10:42:59.082Z,99671.30
2022-09-21T10:45:35.546Z,99673.12
2022-09-21T10:48:10.477Z,99673.35
2022-09-21T10:50:49.169Z,99682.19
2022-09-21T10:53:32.839Z,99676.47
2022-09-21T10:56:22.263Z,99669.52
2022-09-21T10:59:15.274Z,99669.84
2022-09-21T11:01:50.277Z,99675.59
2022-09-21T11:04:41.921Z,99679.63
2022-09-21T11:07:32.465Z,99682.73
2022-09-21T11:10:34.252Z,99691.28
2022-09-21T11:13:26.597Z,99675.29
2022-09-21T11:16:04.470Z,99675.01
2022-09-21T11:18:57.245Z,99676.41
2022-09-21T11:21:41.526Z,99679.80
2022-09-21T11:24:25.119Z,99679.94
2022-09-21T11:27:15.625Z,99679.50
2022-09-21T11:30:17.907Z,99677.50
2022-09-21T11:33:03.032Z,99671.73
2022-09-21T11:36:05.301Z,99666.91
2022-09-21T11:38:56.507Z,99664.22
2022-09-21T11:41:40.739Z,99666.71
2022-09-21T11:44:31.701Z,99668.56
2022-09-21T11:47:25.010Z,99660.08
2022-09-21T11:50:30.167Z,99659.97
2022-09-21T11:53:13.126Z,99656.67
2022-09-21T11:56:06.281Z,99656.95
2022-09-21T11:58:57.990Z,99654.11
2022-09-21T12:01:39.282Z,99652.58
2022-09-21T12:04:36.512Z,99653.30
2022-09-21T12:07:29.799Z,99656.63
2022-09-21T12:10:20.186Z,99644.26
2022-09-21T12:12:55.029Z,99646.38
2022-09-21T12:15:32.413Z,99643.18
2022-09-21T12:18:14.934Z,99633.11
2022-09-21T12:21:07.989Z,99649.77
2022-09-21T12:23:55.081Z,99647.55
2022-09-21T12:26:30.303Z,99652.75
2022-09-21T12:29:05.643Z,99653.16
2022-09-21T12:31:47.103Z,99649.63
2022-09-21T12:34:22.649Z,99638.89
2022-09-21T12:36:57.862Z,99641.33
2022-09-21T12:39:53.966Z,99635.87
2022-09-21T12:42:50.112Z,99641.45
2022-09-21T12:45:24.977Z,99638.83
2022-09-21T12:48:02.928Z,99639.54
2022-09-21T12:51:03.669Z,99644.04
2022-09-21T12:53:37.960Z,99644.20
2022-09-21T12:56:24.986Z,99641.70
2022-09-21T12:59:15.163Z,99631.16
2022-09-21T13:02:02.426Z,99640.82
2022-09-21T13:05:02.985Z,99650.39
2022-09-21T13:08:04.994Z,99647.62
2022-09-21T13:10:49.162Z,99642.69
2022-09-21T13:13:28.232Z,99650.17
2022-09-21T13:16:01.501Z,99646.08
2022-09-21T13:18:41.706Z,99653.45
2022-09-21T13:21:19.484Z,99646.70
2022-09-21T13:24:06.155Z,99648.85
2022-09-21T13:26:47.009Z,99640.44
2022-09-21T13:29:22.310Z,99638.99
2022-09-21T13:31:59.741Z,99637.63
2022-09-21T13:34:39.956Z,99636.07
2022-09-21T13:37:20.974Z,99636.07
2022-09-21T13:39:58.651Z,99637.90
2022-09-21T13:42:35.468Z,99630.66
2022-09-21T13:45:17.933Z,99618.97
2022-09-21T13:47:52.909Z,99620.67
2022-09-21T13:50:33.845Z,99620.44
2022-09-21T13:53:09.433Z,99622.86
2022-09-21T13:55:44.767Z,99628.63
2022-09-21T13:58:28.742Z,99625.86
2022-09-21T14:01:09.853Z,99621.41
2022-09-21T14:03:45.768Z,99625.86
2022-09-21T14:06:24.828Z,99628.63
2022-09-21T14:09:06.040Z,99629.36
2022-09-21T14:11:44.856Z,99624.77
2022-09-21T14:14:37.772Z,99623.78
2022-09-21T14:17:38.272Z,99621.14
2022-09-21T14:20:34.601Z,99620.90
2022-09-21T14:23:17.720Z,99618.37
2022-09-21T14:25:58.037Z,99617.42
2022-09-21T14:28:42.397Z,99615.72
2022-09-21T14:31:20.565Z,99619.46
2022-09-21T14:33:55.700Z,99622.34
2022-09-21T14:36:41.068Z,99618.41
2022-09-21T14:39:19.225Z,99619.94
2022-09-21T14:41:54.043Z,99620.67
2022-09-21T14:44:35.857Z,99625.73
2022-09-21T14:47:25.589Z,99626.46
2022-09-21T14:50:07.459Z,99614.06
2022-09-21T14:52:45.439Z,99620.05
2022-09-21T14:55:32.750Z,99621.63
2022-09-21T14:58:33.159Z,99625.92
2022-09-21T15:01:35.444Z,99623.98
2022-09-21T15:04:28.874Z,99627.22
2022-09-21T15:07:41.855Z,99633.11
2022-09-21T15:10:43.687Z,99633.56
2022-09-21T15:13:32.100Z,99632.10
2022-09-21T15:16:23.392Z,99640.38
2022-09-21T15:19:16.726Z,99641.78
2022-09-21T15:21:51.523Z,99624.97
2022-09-21T15:24:35.537Z,99624.97
2022-09-21T15:27:15.113Z,99641.34
2022-09-21T15:29:50.411Z,99651.31
2022-09-21T15:32:43.408Z,99648.14
2022-09-21T15:35:21.569Z,99650.92
2022-09-21T15:37:55.258Z,99640.56
2022-09-21T15:40:36.571Z,99640.56
2022-09-21T15:43:19.629Z,99645.84
2022-09-21T15:46:04.738Z,99654.85
2022-09-21T15:48:42.824Z,99651.56
2022-09-21T15:51:37.561Z,99658.03
2022-09-21T15:54:35.557Z,99658.03
2022-09-21T15:57:26.359Z,99669.68
2022-09-21T15:59:58.456Z,99662.10
2022-09-21T16:02:37.783Z,99659.67
2022-09-21T16:05:15.881Z,99667.70
2022-09-21T16:07:48.212Z,99665.41
2022-09-21T16:10:35.330Z,99680.98
2022-09-21T16:13:31.037Z,99683.62
2022-09-21T16:16:08.458Z,99683.62
2022-09-21T16:18:49.619Z,99686.98
2022-09-21T16:21:32.503Z,99686.02
2022-09-21T16:24:14.323Z,99687.08
2022-09-21T16:26:58.424Z,99688.05
2022-09-21T16:29:43.755Z,99691.86
2022-09-21T16:32:32.016Z,99697.46
2022-09-21T16:35:25.325Z,99691.66
2022-09-21T16:37:59.139Z,99685.66
2022-09-21T16:40:31.650Z,99692.11
2022-09-21T16:43:06.023Z,99688.00
2022-09-21T16:45:38.684Z,99696.23
2022-09-21T16:48:14.627Z,99696.33
2022-09-21T16:50:47.823Z,99689.47
2022-09-21T16:53:22.076Z,99663.27
2022-09-21T16:55:57.394Z,99695.81
2022-09-21T16:58:29.990Z,99693.07
2022-09-21T17:01:03.841Z,99694.95
2022-09-21T17:03:36.209Z,99701.20
2022-09-21T17:06:23.079Z,99699.41
2022-09-21T17:08:55.898Z,99700.38
2022-09-21T17:11:28.606Z,99703.94
2022-09-21T17:14:02.243Z,99705.66
2022-09-21T17:16:34.541Z,99716.09
2022-09-21T17:19:06.708Z,99707.34
2022-09-21T17:21:39.137Z,99712.83
2022-09-21T17:24:19.272Z,99716.42
2022-09-21T17:26:46.674Z,99726.99
2022-09-21T17:29:27.301Z,99725.83
2022-09-21T17:32:00.399Z,99729.30
2022-09-21T17:34:34.465Z,99751.91
2022-09-21T17:37:07.464Z,99757.63
2022-09-21T17:39:40.109Z,99765.59
2022-09-21T17:42:15.510Z,99763.05
2022-09-21T17:45:07.372Z,99766.75
2022-09-21T17:47:40.902Z,99767.06
2022-09-21T17:50:15.918Z,99759.77
2022-09-21T17:53:05.978Z,99761.09
2022-09-21T17:55:39.618Z,99766.48
2022-09-21T17:58:33.714Z,99763.01
2022-09-21T18:01:27.092Z,99766.56
2022-09-21T18:04:00.201Z,99762.34
2022-09-21T18:06:34.855Z,99754.41
2022-09-21T18:09:06.665Z,99757.85
2022-09-21T18:11:47.990Z,99765.97
2022-09-21T18:14:39.028Z,99763.00
2022-09-21T18:17:17.201Z,99754.42
2022-09-21T18:20:18.895Z,99759.97
2022-09-21T18:23:09.109Z,99764.58
2022-09-21T18:25:50.269Z,99763.80
2022-09-21T18:28:46.304Z,99755.91
2022-09-21T18:31:42.569Z,99753.28
2022-09-21T18:34:37.213Z,99757.69
2022-09-21T18:37:15.888Z,99756.08
2022-09-21T18:40:26.215Z,99753.45
2022-09-21T18:43:16.349Z,99754.45
2022-09-21T18:45:57.082Z,99758.97
2022-09-21T18:48:50.852Z,99757.16
2022-09-21T18:51:24.389Z,99755.39
2022-09-21T18:53:58.531Z,99755.30
2022-09-21T18:56:37.048Z,99755.17
2022-09-21T18:59:10.919Z,99754.05
2022-09-21T19:01:45.608Z,99754.05
2022-09-21T19:04:19.168Z,99750.48
2022-09-21T19:07:03.657Z,99760.14
2022-09-21T19:09:48.469Z,99748.02
2022-09-21T19:12:32.312Z,99754.31
2022-09-21T19:15:48.683Z,99747.37
2022-09-21T19:18:20.200Z,99754.53
2022-09-21T19:21:04.572Z,99764.05
2022-09-21T19:24:11.890Z,99757.94
2022-09-21T19:26:46.909Z,99758.71
2022-09-21T19:29:38.033Z,99751.68
2022-09-21T19:32:15.847Z,99751.68
2022-09-21T19:34:48.104Z,99751.52
2022-09-21T19:37:20.261Z,99766.27
2022-09-21T19:39:52.334Z,99763.47
2022-09-21T19:42:43.420Z,99758.95
2022-09-21T19:45:39.450Z,99761.48
2022-09-21T19:48:14.661Z,99761.41
2022-09-21T19:51:00.504Z,99767.23
2022-09-21T19:53:51.315Z,99771.55
2022-09-21T19:56:40.998Z,99765.17
2022-09-21T19:59:31.113Z,99771.30
2022-09-21T20:02:05.756Z,99770.44
2022-09-21T20:04:46.145Z,99771.30
2022-09-21T20:07:32.900Z,99771.05
2022-09-21T20:10:25.919Z,99758.05
2022-09-21T20:13:03.738Z,99762.55
2022-09-21T20:15:45.097Z,99759.91
2022-09-21T20:18:19.948Z,99765.17
2022-09-21T20:20:51.996Z,99762.72
2022-09-21T20:23:24.431Z,99758.40
2022-09-21T20:26:03.518Z,99760.29
2022-09-21T20:28:36.027Z,99754.25
2022-09-21T20:31:08.122Z,99760.29
2022-09-21T20:33:40.115Z,99760.46
2022-09-21T20:36:12.179Z,99758.77
2022-09-21T20:38:44.630Z,99754.42
2022-09-21T20:41:19.086Z,99757.05
2022-09-21T20:43:51.041Z,99756.14
2022-09-21T20:46:23.042Z,99756.72
2022-09-21T20:48:56.694Z,99739.98
2022-09-21T20:51:28.780Z,99745.16
2022-09-21T20:54:03.433Z,99738.95
2022-09-21T20:56:34.705Z,99732.78
2022-09-21T20:59:06.332Z,99729.77
2022-09-21T21:01:38.484Z,99726.66
2022-09-21T21:04:12.216Z,99728.52
2022-09-21T21:06:44.818Z,99727.77
2022-09-21T21:09:17.034Z,99725.14
2022-09-21T21:11:49.009Z,99719.23
2022-09-21T21:14:20.901Z,99716.69
2022-09-21T21:16:53.021Z,99722.86
2022-09-21T21:19:25.057Z,99722.86
2022-09-21T21:21:57.077Z,99722.86
2022-09-21T21:24:41.136Z,99725.48
2022-09-21T21:27:16.535Z,99736.88
2022-09-21T21:29:50.742Z,99737.73
2022-09-21T21:32:25.539Z,99735.84
2022-09-21T21:34:57.928Z,99744.67
2022-09-21T21:37:30.507Z,99738.47
2022-09-21T21:40:03.481Z,99736.70
2022-09-21T21:42:35.400Z,99741.96
2022-09-21T21:45:08.244Z,99728.80
2022-09-21T21:47:41.248Z,99734.06
2022-09-21T21:50:13.738Z,99729.63
2022-09-21T21:52:45.844Z,99723.46
2022-09-21T21:55:17.971Z,99730.41
2022-09-21T21:57:49.957Z,99725.14
2022-09-21T22:00:22.169Z,99727.95
2022-09-21T22:02:55.594Z,99728.89
2022-09-21T22:05:27.599Z,99729.84
2022-09-21T22:07:59.874Z,99732.47
2022-09-21T22:10:31.920Z,99735.84
2022-09-21T22:13:05.452Z,99733.30
2022-09-21T22:15:37.460Z,99731.52
2022-09-21T22:18:09.532Z,99733.30
2022-09-21T22:20:41.604Z,99740.27
2022-09-21T22:23:17.331Z,99738.56
2022-09-21T22:25:49.249Z,99729.63
2022-09-21T22:28:21.139Z,99734.89
2022-09-21T22:30:53.481Z,99739.33
2022-09-21T22:33:27.974Z,99736.53
2022-09-21T22:36:04.819Z,99735.49
2022-09-21T22:38:42.527Z,99733.60
2022-09-21T22:41:14.041Z,99729.20
2022-09-21T22:43:47.521Z,99728.34
2022-09-21T22:46:20.099Z,99728.34
2022-09-21T22:48:52.127Z,99729.29
2022-09-21T22:51:24.565Z,99732.09
2022-09-21T22:53:56.812Z,99728.80
2022-09-21T22:56:31.126Z,99730.58
2022-09-21T22:59:05.251Z,99732.47
2022-09-21T23:01:39.899Z,99741.10
2022-09-21T23:04:14.297Z,99737.52
2022-09-21T23:06:47.054Z,99737.44
2022-09-21T23:09:20.988Z,99741.87
2022-09-21T23:11:55.844Z,99733.98
2022-09-21T23:14:27.824Z,99726.83
2022-09-21T23:16:59.724Z,99732.01
2022-09-21T23:19:32.060Z,99730.23
2022-09-21T23:22:03.908Z,99725.88
2022-09-21T23:24:35.855Z,99725.14
2022-09-21T23:27:07.898Z,99724.49
2022-09-21T23:29:39.951Z,99727.13
2022-09-21T23:32:11.948Z,99723.63
2022-09-21T23:34:43.752Z,99727.00
2022-09-21T23:37:15.737Z,99721.66
2022-09-21T23:39:48.405Z,99725.88
2022-09-21T23:42:20.496Z,99712.64
2022-09-21T23:44:52.571Z,99721.39
2022-09-21T23:47:24.738Z,99713.50
2022-09-21T23:49:56.610Z,99707.30
2022-09-21T23:52:28.686Z,99708.98
2022-09-21T23:55:00.648Z,99708.16
2022-09-21T23:57:32.753Z,99700.34
